sensor_id;sensor_type;location;lat;lon;timestamp;temperature;humidity
1429;DHT22;708;51.442;7.016;2022-09-13T00:01:32;20.80;99.90
1429;DHT22;708;51.442;7.016;2022-09-13T00:03:59;20.80;99.90
1429;DHT22;708;51.442;7.016;2022-09-13T00:06:26;20.80;99.90
1429;DHT22;708;51.442;7.016;2022-09-13T00:08:53;20.80;99.90
1429;DHT22;708;51.442;7.016;2022-09-13T00:11:21;20.80;99.90
1429;DHT22;708;51.442;7.016;2022-09-13T00:13:50;20.80;99.90
1429;DHT22;708;51.442;7.016;2022-09-13T00:16:19;20.70;99.90
1429;DHT22;708;51.442;7.016;2022-09-13T00:18:46;20.70;99.90
1429;DHT22;708;51.442;7.016;2022-09-13T00:21:15;20.70;99.90
1429;DHT22;708;51.442;7.016;2022-09-13T00:23:43;20.70;99.90
1429;DHT22;708;51.442;7.016;2022-09-13T00:26:12;20.70;99.90
1429;DHT22;708;51.442;7.016;2022-09-13T00:28:40;20.70;99.90
1429;DHT22;708;51.442;7.016;2022-09-13T00:31:09;20.80;99.90
1429;DHT22;708;51.442;7.016;2022-09-13T00:33:36;20.80;99.90
1429;DHT22;708;51.442;7.016;2022-09-13T00:36:05;20.80;99.90
1429;DHT22;708;51.442;7.016;2022-09-13T00:38:34;20.90;99.90
1429;DHT22;708;51.442;7.016;2022-09-13T00:41:02;20.90;99.90
1429;DHT22;708;51.442;7.016;2022-09-13T00:43:45;20.90;99.90
1429;DHT22;708;51.442;7.016;2022-09-13T00:46:18;21.00;99.90
1429;DHT22;708;51.442;7.016;2022-09-13T00:48:46;21.00;99.90
1429;DHT22;708;51.442;7.016;2022-09-13T00:51:14;21.00;99.90
1429;DHT22;708;51.442;7.016;2022-09-13T00:53:44;21.00;99.90
1429;DHT22;708;51.442;7.016;2022-09-13T00:56:16;21.10;99.90
1429;DHT22;708;51.442;7.016;2022-09-13T00:58:48;21.10;99.90
1429;DHT22;708;51.442;7.016;2022-09-13T01:01:18;21.00;99.90
1429;DHT22;708;51.442;7.016;2022-09-13T01:03:46;21.00;99.90
1429;DHT22;708;51.442;7.016;2022-09-13T01:06:15;21.00;99.90
1429;DHT22;708;51.442;7.016;2022-09-13T01:08:45;21.00;99.90
1429;DHT22;708;51.442;7.016;2022-09-13T01:11:19;21.00;99.90
1429;DHT22;708;51.442;7.016;2022-09-13T01:13:47;21.00;99.90
1429;DHT22;708;51.442;7.016;2022-09-13T01:16:17;20.90;99.90
1429;DHT22;708;51.442;7.016;2022-09-13T01:18:44;20.90;99.90
1429;DHT22;708;51.442;7.016;2022-09-13T01:21:40;20.90;99.90
1429;DHT22;708;51.442;7.016;2022-09-13T01:24:33;20.80;99.90
1429;DHT22;708;51.442;7.016;2022-09-13T01:27:24;20.80;99.90
1429;DHT22;708;51.442;7.016;2022-09-13T01:30:08;20.80;99.90
1429;DHT22;708;51.442;7.016;2022-09-13T01:32:48;20.80;99.90
1429;DHT22;708;51.442;7.016;2022-09-13T01:35:22;20.70;99.90
1429;DHT22;708;51.442;7.016;2022-09-13T01:37:56;20.70;99.90
1429;DHT22;708;51.442;7.016;2022-09-13T01:40:40;20.70;99.90
1429;DHT22;708;51.442;7.016;2022-09-13T01:43:25;20.60;99.90
1429;DHT22;708;51.442;7.016;2022-09-13T01:46:03;20.60;99.90
1429;DHT22;708;51.442;7.016;2022-09-13T01:48:35;20.60;99.90
1429;DHT22;708;51.442;7.016;2022-09-13T01:51:10;20.60;99.90
1429;DHT22;708;51.442;7.016;2022-09-13T01:53:48;20.60;99.90
1429;DHT22;708;51.442;7.016;2022-09-13T01:56:21;20.60;99.90
1429;DHT22;708;51.442;7.016;2022-09-13T01:58:52;20.60;99.90
1429;DHT22;708;51.442;7.016;2022-09-13T02:01:24;20.60;99.90
1429;DHT22;708;51.442;7.016;2022-09-13T02:03:58;20.60;99.90
1429;DHT22;708;51.442;7.016;2022-09-13T02:06:29;20.60;99.90
1429;DHT22;708;51.442;7.016;2022-09-13T02:09:00;20.70;99.90
1429;DHT22;708;51.442;7.016;2022-09-13T02:11:30;20.70;99.90
1429;DHT22;708;51.442;7.016;2022-09-13T02:14:03;20.70;99.90
1429;DHT22;708;51.442;7.016;2022-09-13T02:16:36;20.70;99.90
1429;DHT22;708;51.442;7.016;2022-09-13T02:19:07;20.80;99.90
1429;DHT22;708;51.442;7.016;2022-09-13T02:21:41;20.80;99.90
1429;DHT22;708;51.442;7.016;2022-09-13T02:24:14;20.80;99.90
1429;DHT22;708;51.442;7.016;2022-09-13T02:26:43;20.80;99.90
1429;DHT22;708;51.442;7.016;2022-09-13T02:29:14;20.80;99.90
1429;DHT22;708;51.442;7.016;2022-09-13T02:31:46;20.80;99.90
1429;DHT22;708;51.442;7.016;2022-09-13T02:34:18;20.80;99.90
1429;DHT22;708;51.442;7.016;2022-09-13T02:36:47;20.80;99.90
1429;DHT22;708;51.442;7.016;2022-09-13T02:39:16;20.80;99.90
1429;DHT22;708;51.442;7.016;2022-09-13T02:41:50;20.80;99.90
1429;DHT22;708;51.442;7.016;2022-09-13T02:44:22;20.80;99.90
1429;DHT22;708;51.442;7.016;2022-09-13T02:46:59;20.80;99.90
1429;DHT22;708;51.442;7.016;2022-09-13T02:49:36;20.80;99.90
1429;DHT22;708;51.442;7.016;2022-09-13T02:52:11;20.80;99.90
1429;DHT22;708;51.442;7.016;2022-09-13T02:54:51;20.80;99.90
1429;DHT22;708;51.442;7.016;2022-09-13T02:57:24;20.80;99.90
1429;DHT22;708;51.442;7.016;2022-09-13T02:59:56;20.90;99.90
1429;DHT22;708;51.442;7.016;2022-09-13T03:02:27;20.90;99.90
1429;DHT22;708;51.442;7.016;2022-09-13T03:04:57;20.90;99.90
1429;DHT22;708;51.442;7.016;2022-09-13T03:07:25;20.90;99.90
1429;DHT22;708;51.442;7.016;2022-09-13T03:09:54;20.90;99.90
1429;DHT22;708;51.442;7.016;2022-09-13T03:12:38;20.90;99.90
1429;DHT22;708;51.442;7.016;2022-09-13T03:15:14;20.90;99.90
1429;DHT22;708;51.442;7.016;2022-09-13T03:17:53;20.90;99.90
1429;DHT22;708;51.442;7.016;2022-09-13T03:20:35;20.90;99.90
1429;DHT22;708;51.442;7.016;2022-09-13T03:23:37;20.80;99.90
1429;DHT22;708;51.442;7.016;2022-09-13T03:26:25;20.90;99.90
1429;DHT22;708;51.442;7.016;2022-09-13T03:29:02;20.90;99.90
1429;DHT22;708;51.442;7.016;2022-09-13T03:31:34;20.90;99.90
1429;DHT22;708;51.442;7.016;2022-09-13T03:34:08;20.90;99.90
1429;DHT22;708;51.442;7.016;2022-09-13T03:36:40;20.90;99.90
1429;DHT22;708;51.442;7.016;2022-09-13T03:39:11;20.90;99.90
1429;DHT22;708;51.442;7.016;2022-09-13T03:41:47;20.80;99.90
1429;DHT22;708;51.442;7.016;2022-09-13T03:44:17;20.80;99.90
1429;DHT22;708;51.442;7.016;2022-09-13T03:46:48;20.80;99.90
1429;DHT22;708;51.442;7.016;2022-09-13T03:49:21;20.80;99.90
1429;DHT22;708;51.442;7.016;2022-09-13T03:51:49;20.70;99.90
1429;DHT22;708;51.442;7.016;2022-09-13T03:54:19;20.70;99.90
1429;DHT22;708;51.442;7.016;2022-09-13T03:57:15;20.60;99.90
1429;DHT22;708;51.442;7.016;2022-09-13T03:59:47;20.60;99.90
1429;DHT22;708;51.442;7.016;2022-09-13T04:02:14;20.50;99.90
1429;DHT22;708;51.442;7.016;2022-09-13T04:04:44;20.50;99.90
1429;DHT22;708;51.442;7.016;2022-09-13T04:07:12;20.50;99.90
1429;DHT22;708;51.442;7.016;2022-09-13T04:09:39;20.40;99.90
1429;DHT22;708;51.442;7.016;2022-09-13T04:12:06;20.40;99.90
1429;DHT22;708;51.442;7.016;2022-09-13T04:14:34;20.40;99.90
1429;DHT22;708;51.442;7.016;2022-09-13T04:17:01;20.40;99.90
1429;DHT22;708;51.442;7.016;2022-09-13T04:19:28;20.30;99.90
1429;DHT22;708;51.442;7.016;2022-09-13T04:21:57;20.30;99.90
1429;DHT22;708;51.442;7.016;2022-09-13T04:24:25;20.30;99.90
1429;DHT22;708;51.442;7.016;2022-09-13T04:26:53;20.30;99.90
1429;DHT22;708;51.442;7.016;2022-09-13T04:29:22;20.30;99.90
1429;DHT22;708;51.442;7.016;2022-09-13T04:31:50;20.20;99.90
1429;DHT22;708;51.442;7.016;2022-09-13T04:34:20;20.20;99.90
1429;DHT22;708;51.442;7.016;2022-09-13T04:36:48;20.20;99.90
1429;DHT22;708;51.442;7.016;2022-09-13T04:39:16;20.20;99.90
1429;DHT22;708;51.442;7.016;2022-09-13T04:41:45;20.30;99.90
1429;DHT22;708;51.442;7.016;2022-09-13T04:44:13;20.30;99.90
1429;DHT22;708;51.442;7.016;2022-09-13T04:46:40;20.30;99.90
1429;DHT22;708;51.442;7.016;2022-09-13T04:49:09;20.30;99.90
1429;DHT22;708;51.442;7.016;2022-09-13T04:51:35;20.30;99.90
1429;DHT22;708;51.442;7.016;2022-09-13T04:54:02;20.20;99.90
1429;DHT22;708;51.442;7.016;2022-09-13T04:56:31;20.20;99.90
1429;DHT22;708;51.442;7.016;2022-09-13T04:58:58;20.30;99.90
1429;DHT22;708;51.442;7.016;2022-09-13T05:01:25;20.30;99.90
1429;DHT22;708;51.442;7.016;2022-09-13T05:03:52;20.20;99.90
1429;DHT22;708;51.442;7.016;2022-09-13T05:06:19;20.20;99.90
1429;DHT22;708;51.442;7.016;2022-09-13T05:08:50;20.30;99.90
1429;DHT22;708;51.442;7.016;2022-09-13T05:11:19;20.30;99.90
1429;DHT22;708;51.442;7.016;2022-09-13T05:13:49;20.30;99.90
1429;DHT22;708;51.442;7.016;2022-09-13T05:16:20;20.30;99.90
1429;DHT22;708;51.442;7.016;2022-09-13T05:18:46;20.40;99.90
1429;DHT22;708;51.442;7.016;2022-09-13T05:21:13;20.40;99.90
1429;DHT22;708;51.442;7.016;2022-09-13T05:23:40;20.40;99.90
1429;DHT22;708;51.442;7.016;2022-09-13T05:26:20;20.40;99.90
1429;DHT22;708;51.442;7.016;2022-09-13T05:28:48;20.40;99.90
1429;DHT22;708;51.442;7.016;2022-09-13T05:31:17;20.40;99.90
1429;DHT22;708;51.442;7.016;2022-09-13T05:33:46;20.50;99.90
1429;DHT22;708;51.442;7.016;2022-09-13T05:36:13;20.50;99.90
1429;DHT22;708;51.442;7.016;2022-09-13T05:38:40;20.50;99.90
1429;DHT22;708;51.442;7.016;2022-09-13T05:41:07;20.60;99.90
1429;DHT22;708;51.442;7.016;2022-09-13T05:43:35;20.60;99.90
1429;DHT22;708;51.442;7.016;2022-09-13T05:46:05;20.60;99.90
1429;DHT22;708;51.442;7.016;2022-09-13T05:48:34;20.70;99.90
1429;DHT22;708;51.442;7.016;2022-09-13T05:51:05;20.80;99.90
1429;DHT22;708;51.442;7.016;2022-09-13T05:53:33;20.80;99.90
1429;DHT22;708;51.442;7.016;2022-09-13T05:56:00;20.90;99.90
1429;DHT22;708;51.442;7.016;2022-09-13T05:58:27;20.90;99.90
1429;DHT22;708;51.442;7.016;2022-09-13T06:00:55;21.00;99.90
1429;DHT22;708;51.442;7.016;2022-09-13T06:03:24;21.00;99.90
1429;DHT22;708;51.442;7.016;2022-09-13T06:05:54;21.10;99.90
1429;DHT22;708;51.442;7.016;2022-09-13T06:08:22;21.20;99.90
1429;DHT22;708;51.442;7.016;2022-09-13T06:10:58;21.30;99.90
1429;DHT22;708;51.442;7.016;2022-09-13T06:13:26;21.30;99.90
1429;DHT22;708;51.442;7.016;2022-09-13T06:15:55;21.30;99.90
1429;DHT22;708;51.442;7.016;2022-09-13T06:18:23;21.30;99.90
1429;DHT22;708;51.442;7.016;2022-09-13T06:20:51;21.40;99.90
1429;DHT22;708;51.442;7.016;2022-09-13T06:23:23;21.50;99.90
1429;DHT22;708;51.442;7.016;2022-09-13T06:25:49;21.50;99.90
1429;DHT22;708;51.442;7.016;2022-09-13T06:28:16;21.50;99.90
1429;DHT22;708;51.442;7.016;2022-09-13T06:30:43;21.60;99.90
1429;DHT22;708;51.442;7.016;2022-09-13T06:33:10;21.60;99.90
1429;DHT22;708;51.442;7.016;2022-09-13T06:35:38;21.70;99.90
1429;DHT22;708;51.442;7.016;2022-09-13T06:38:05;21.70;99.90
1429;DHT22;708;51.442;7.016;2022-09-13T06:40:31;21.80;99.90
1429;DHT22;708;51.442;7.016;2022-09-13T06:42:58;21.80;99.90
1429;DHT22;708;51.442;7.016;2022-09-13T06:45:25;21.80;99.90
1429;DHT22;708;51.442;7.016;2022-09-13T06:47:52;21.80;99.90
1429;DHT22;708;51.442;7.016;2022-09-13T06:50:20;21.90;99.90
1429;DHT22;708;51.442;7.016;2022-09-13T06:52:48;21.90;99.90
1429;DHT22;708;51.442;7.016;2022-09-13T06:55:15;22.00;99.90
1429;DHT22;708;51.442;7.016;2022-09-13T06:57:42;22.20;99.90
1429;DHT22;708;51.442;7.016;2022-09-13T07:00:10;22.30;99.90
1429;DHT22;708;51.442;7.016;2022-09-13T07:02:37;22.50;99.90
1429;DHT22;708;51.442;7.016;2022-09-13T07:05:04;22.80;99.90
1429;DHT22;708;51.442;7.016;2022-09-13T07:07:31;23.00;99.90
1429;DHT22;708;51.442;7.016;2022-09-13T07:09:59;23.20;99.90
1429;DHT22;708;51.442;7.016;2022-09-13T07:12:26;23.40;99.90
1429;DHT22;708;51.442;7.016;2022-09-13T07:14:56;23.70;99.90
1429;DHT22;708;51.442;7.016;2022-09-13T07:17:23;23.80;99.90
1429;DHT22;708;51.442;7.016;2022-09-13T07:19:54;24.00;99.90
1429;DHT22;708;51.442;7.016;2022-09-13T07:22:23;24.00;99.90
1429;DHT22;708;51.442;7.016;2022-09-13T07:25:01;24.10;99.90
1429;DHT22;708;51.442;7.016;2022-09-13T07:27:27;24.20;99.90
1429;DHT22;708;51.442;7.016;2022-09-13T07:29:54;24.20;99.90
1429;DHT22;708;51.442;7.016;2022-09-13T07:32:22;24.50;99.90
1429;DHT22;708;51.442;7.016;2022-09-13T07:34:49;25.20;99.90
1429;DHT22;708;51.442;7.016;2022-09-13T07:37:15;26.00;99.90
1429;DHT22;708;51.442;7.016;2022-09-13T07:39:42;26.40;99.90
1429;DHT22;708;51.442;7.016;2022-09-13T07:42:10;26.50;99.90
1429;DHT22;708;51.442;7.016;2022-09-13T07:44:37;26.50;99.90
1429;DHT22;708;51.442;7.016;2022-09-13T07:47:04;26.70;99.90
1429;DHT22;708;51.442;7.016;2022-09-13T07:49:31;27.00;99.90
1429;DHT22;708;51.442;7.016;2022-09-13T07:51:57;27.20;99.90
1429;DHT22;708;51.442;7.016;2022-09-13T07:54:24;27.30;99.90
1429;DHT22;708;51.442;7.016;2022-09-13T07:56:51;27.40;99.90
1429;DHT22;708;51.442;7.016;2022-09-13T07:59:19;27.30;99.90
1429;DHT22;708;51.442;7.016;2022-09-13T08:01:47;27.30;99.90
1429;DHT22;708;51.442;7.016;2022-09-13T08:04:16;27.30;99.90
1429;DHT22;708;51.442;7.016;2022-09-13T08:06:44;27.30;99.90
1429;DHT22;708;51.442;7.016;2022-09-13T08:09:11;27.20;99.90
1429;DHT22;708;51.442;7.016;2022-09-13T08:11:39;27.10;99.90
1429;DHT22;708;51.442;7.016;2022-09-13T08:14:08;27.00;99.90
1429;DHT22;708;51.442;7.016;2022-09-13T08:16:36;27.00;99.90
1429;DHT22;708;51.442;7.016;2022-09-13T08:19:04;27.00;99.90
1429;DHT22;708;51.442;7.016;2022-09-13T08:21:33;26.90;99.90
1429;DHT22;708;51.442;7.016;2022-09-13T08:24:01;26.90;99.90
1429;DHT22;708;51.442;7.016;2022-09-13T08:26:29;27.00;99.90
1429;DHT22;708;51.442;7.016;2022-09-13T08:28:57;27.30;99.90
1429;DHT22;708;51.442;7.016;2022-09-13T08:31:25;27.80;99.90
1429;DHT22;708;51.442;7.016;2022-09-13T08:33:54;28.50;99.90
1429;DHT22;708;51.442;7.016;2022-09-13T08:36:22;29.60;99.20
1429;DHT22;708;51.442;7.016;2022-09-13T08:41:26;31.50;94.50
1429;DHT22;708;51.442;7.016;2022-09-13T08:44:02;32.40;93.30
1429;DHT22;708;51.442;7.016;2022-09-13T08:46:32;33.50;91.20
1429;DHT22;708;51.442;7.016;2022-09-13T08:49:05;34.20;88.60
1429;DHT22;708;51.442;7.016;2022-09-13T08:51:39;34.70;85.10
1429;DHT22;708;51.442;7.016;2022-09-13T08:54:08;34.90;82.70
1429;DHT22;708;51.442;7.016;2022-09-13T08:56:41;34.70;81.40
1429;DHT22;708;51.442;7.016;2022-09-13T08:59:26;34.70;81.50
1429;DHT22;708;51.442;7.016;2022-09-13T09:02:02;35.00;80.70
1429;DHT22;708;51.442;7.016;2022-09-13T09:04:40;35.30;79.10
1429;DHT22;708;51.442;7.016;2022-09-13T09:07:13;35.30;78.10
1429;DHT22;708;51.442;7.016;2022-09-13T09:09:45;35.30;77.40
1429;DHT22;708;51.442;7.016;2022-09-13T09:12:18;35.50;76.90
1429;DHT22;708;51.442;7.016;2022-09-13T09:14:53;35.40;76.20
1429;DHT22;708;51.442;7.016;2022-09-13T09:17:25;35.60;75.80
1429;DHT22;708;51.442;7.016;2022-09-13T09:19:59;35.40;75.80
1429;DHT22;708;51.442;7.016;2022-09-13T09:22:32;35.20;75.70
1429;DHT22;708;51.442;7.016;2022-09-13T09:25:00;35.40;74.90
1429;DHT22;708;51.442;7.016;2022-09-13T09:27:29;35.50;75.10
1429;DHT22;708;51.442;7.016;2022-09-13T09:29:56;35.50;74.50
1429;DHT22;708;51.442;7.016;2022-09-13T09:32:40;35.30;74.80
1429;DHT22;708;51.442;7.016;2022-09-13T09:35:22;35.20;75.10
1429;DHT22;708;51.442;7.016;2022-09-13T09:38:13;35.10;75.80
1429;DHT22;708;51.442;7.016;2022-09-13T09:40:44;35.10;74.30
1429;DHT22;708;51.442;7.016;2022-09-13T09:43:14;34.90;75.40
1429;DHT22;708;51.442;7.016;2022-09-13T09:45:43;34.40;75.20
1429;DHT22;708;51.442;7.016;2022-09-13T09:48:15;34.10;76.40
1429;DHT22;708;51.442;7.016;2022-09-13T09:50:48;33.50;77.00
1429;DHT22;708;51.442;7.016;2022-09-13T09:53:18;33.20;77.90
1429;DHT22;708;51.442;7.016;2022-09-13T09:55:51;32.80;79.80
1429;DHT22;708;51.442;7.016;2022-09-13T09:58:35;32.40;80.60
1429;DHT22;708;51.442;7.016;2022-09-13T10:01:04;32.20;81.40
1429;DHT22;708;51.442;7.016;2022-09-13T10:03:33;31.90;81.70
1429;DHT22;708;51.442;7.016;2022-09-13T10:06:07;31.80;82.10
1429;DHT22;708;51.442;7.016;2022-09-13T10:08:35;31.60;83.20
1429;DHT22;708;51.442;7.016;2022-09-13T10:11:03;31.40;83.40
1429;DHT22;708;51.442;7.016;2022-09-13T10:13:31;31.30;84.00
1429;DHT22;708;51.442;7.016;2022-09-13T10:15:59;31.20;84.90
1429;DHT22;708;51.442;7.016;2022-09-13T10:18:28;31.00;86.10
1429;DHT22;708;51.442;7.016;2022-09-13T10:21:01;31.00;86.00
1429;DHT22;708;51.442;7.016;2022-09-13T10:23:29;30.80;86.90
1429;DHT22;708;51.442;7.016;2022-09-13T10:26:06;30.50;88.00
1429;DHT22;708;51.442;7.016;2022-09-13T10:28:40;30.50;89.20
1429;DHT22;708;51.442;7.016;2022-09-13T10:31:10;30.50;88.90
1429;DHT22;708;51.442;7.016;2022-09-13T10:33:39;30.50;89.50
1429;DHT22;708;51.442;7.016;2022-09-13T10:36:12;30.30;90.10
1429;DHT22;708;51.442;7.016;2022-09-13T10:38:46;30.30;90.00
1429;DHT22;708;51.442;7.016;2022-09-13T10:41:22;30.40;90.00
1429;DHT22;708;51.442;7.016;2022-09-13T10:43:55;30.30;90.20
1429;DHT22;708;51.442;7.016;2022-09-13T10:46:23;30.10;90.40
1429;DHT22;708;51.442;7.016;2022-09-13T10:48:50;30.20;90.30
1429;DHT22;708;51.442;7.016;2022-09-13T10:51:30;30.30;90.40
1429;DHT22;708;51.442;7.016;2022-09-13T10:54:14;30.30;90.10
1429;DHT22;708;51.442;7.016;2022-09-13T10:56:42;30.30;90.20
1429;DHT22;708;51.442;7.016;2022-09-13T10:59:23;30.20;90.30
1429;DHT22;708;51.442;7.016;2022-09-13T11:02:13;30.10;90.40
1429;DHT22;708;51.442;7.016;2022-09-13T11:05:15;30.10;90.70
1429;DHT22;708;51.442;7.016;2022-09-13T11:10:46;29.80;91.10
1429;DHT22;708;51.442;7.016;2022-09-13T11:13:23;29.70;91.40
1429;DHT22;708;51.442;7.016;2022-09-13T11:15:57;29.70;91.50
1429;DHT22;708;51.442;7.016;2022-09-13T11:18:37;29.70;91.50
1429;DHT22;708;51.442;7.016;2022-09-13T11:21:16;29.80;91.70
1429;DHT22;708;51.442;7.016;2022-09-13T11:24:08;29.90;91.60
1429;DHT22;708;51.442;7.016;2022-09-13T11:26:49;29.70;91.00
1429;DHT22;708;51.442;7.016;2022-09-13T11:32:26;29.50;92.10
1429;DHT22;708;51.442;7.016;2022-09-13T11:35:11;29.40;92.50
1429;DHT22;708;51.442;7.016;2022-09-13T11:37:48;29.30;92.70
1429;DHT22;708;51.442;7.016;2022-09-13T11:40:34;29.30;93.10
1429;DHT22;708;51.442;7.016;2022-09-13T11:43:26;29.30;93.40
1429;DHT22;708;51.442;7.016;2022-09-13T11:46:02;29.20;93.50
1429;DHT22;708;51.442;7.016;2022-09-13T11:48:45;29.10;93.70
1429;DHT22;708;51.442;7.016;2022-09-13T11:51:20;29.00;94.30
1429;DHT22;708;51.442;7.016;2022-09-13T11:54:04;29.00;94.10
1429;DHT22;708;51.442;7.016;2022-09-13T11:56:37;29.00;94.20
1429;DHT22;708;51.442;7.016;2022-09-13T11:59:14;29.10;94.90
1429;DHT22;708;51.442;7.016;2022-09-13T12:01:48;29.10;94.70
1429;DHT22;708;51.442;7.016;2022-09-13T12:04:19;29.10;94.40
1429;DHT22;708;51.442;7.016;2022-09-13T12:06:52;29.20;94.50
1429;DHT22;708;51.442;7.016;2022-09-13T12:09:24;29.30;94.70
1429;DHT22;708;51.442;7.016;2022-09-13T12:11:54;29.50;94.40
1429;DHT22;708;51.442;7.016;2022-09-13T12:14:28;29.70;94.10
1429;DHT22;708;51.442;7.016;2022-09-13T12:17:02;29.70;94.00
1429;DHT22;708;51.442;7.016;2022-09-13T12:19:40;29.80;93.90
1429;DHT22;708;51.442;7.016;2022-09-13T12:22:22;29.90;94.00
1429;DHT22;708;51.442;7.016;2022-09-13T12:24:52;29.90;94.40
1429;DHT22;708;51.442;7.016;2022-09-13T12:27:24;29.80;94.80
1429;DHT22;708;51.442;7.016;2022-09-13T12:29:56;29.80;94.60
1429;DHT22;708;51.442;7.016;2022-09-13T12:32:26;29.90;94.50
1429;DHT22;708;51.442;7.016;2022-09-13T12:34:59;30.10;94.30
1429;DHT22;708;51.442;7.016;2022-09-13T12:37:47;30.10;93.90
1429;DHT22;708;51.442;7.016;2022-09-13T12:40:33;30.30;94.40
1429;DHT22;708;51.442;7.016;2022-09-13T12:43:13;30.30;94.40
1429;DHT22;708;51.442;7.016;2022-09-13T12:45:55;30.20;94.20
1429;DHT22;708;51.442;7.016;2022-09-13T12:48:40;30.00;94.20
1429;DHT22;708;51.442;7.016;2022-09-13T12:51:29;30.00;94.50
1429;DHT22;708;51.442;7.016;2022-09-13T12:57:06;29.60;96.00
1429;DHT22;708;51.442;7.016;2022-09-13T12:59:59;29.40;96.20
1429;DHT22;708;51.442;7.016;2022-09-13T13:02:32;29.30;96.50
1429;DHT22;708;51.442;7.016;2022-09-13T13:05:04;29.10;97.00
1429;DHT22;708;51.442;7.016;2022-09-13T13:07:34;29.00;97.20
1429;DHT22;708;51.442;7.016;2022-09-13T13:10:03;28.90;97.50
1429;DHT22;708;51.442;7.016;2022-09-13T13:12:32;28.70;97.40
1429;DHT22;708;51.442;7.016;2022-09-13T13:15:02;28.70;97.60
1429;DHT22;708;51.442;7.016;2022-09-13T13:17:51;28.90;97.90
1429;DHT22;708;51.442;7.016;2022-09-13T13:20:45;29.10;97.90
1429;DHT22;708;51.442;7.016;2022-09-13T13:23:25;29.40;97.80
1429;DHT22;708;51.442;7.016;2022-09-13T13:25:58;29.60;97.50
1429;DHT22;708;51.442;7.016;2022-09-13T13:28:48;29.70;97.30
1429;DHT22;708;51.442;7.016;2022-09-13T13:31:37;29.70;96.80
1429;DHT22;708;51.442;7.016;2022-09-13T13:34:26;29.40;96.90
1429;DHT22;708;51.442;7.016;2022-09-13T13:36:58;29.20;96.90
1429;DHT22;708;51.442;7.016;2022-09-13T13:39:37;29.20;97.10
1429;DHT22;708;51.442;7.016;2022-09-13T13:42:29;29.20;97.00
1429;DHT22;708;51.442;7.016;2022-09-13T13:45:16;29.30;97.60
1429;DHT22;708;51.442;7.016;2022-09-13T13:51:18;29.30;97.50
1429;DHT22;708;51.442;7.016;2022-09-13T13:53:49;29.50;97.40
1429;DHT22;708;51.442;7.016;2022-09-13T13:56:20;29.70;97.30
1429;DHT22;708;51.442;7.016;2022-09-13T13:58:50;29.70;97.40
1429;DHT22;708;51.442;7.016;2022-09-13T14:01:23;29.60;97.00
1429;DHT22;708;51.442;7.016;2022-09-13T14:07:04;29.60;97.30
1429;DHT22;708;51.442;7.016;2022-09-13T14:09:38;29.40;97.30
1429;DHT22;708;51.442;7.016;2022-09-13T14:12:24;29.30;97.70
1429;DHT22;708;51.442;7.016;2022-09-13T14:15:10;29.30;97.40
1429;DHT22;708;51.442;7.016;2022-09-13T14:18:12;29.30;97.20
1429;DHT22;708;51.442;7.016;2022-09-13T14:20:57;29.10;97.10
1429;DHT22;708;51.442;7.016;2022-09-13T14:23:25;29.20;97.20
1429;DHT22;708;51.442;7.016;2022-09-13T14:25:54;29.20;98.60
1429;DHT22;708;51.442;7.016;2022-09-13T14:28:22;29.40;98.10
1429;DHT22;708;51.442;7.016;2022-09-13T14:30:53;29.40;97.70
1429;DHT22;708;51.442;7.016;2022-09-13T14:33:23;29.50;98.20
1429;DHT22;708;51.442;7.016;2022-09-13T14:36:06;29.30;96.70
1429;DHT22;708;51.442;7.016;2022-09-13T14:38:35;29.30;97.10
1429;DHT22;708;51.442;7.016;2022-09-13T14:41:11;29.30;98.50
1429;DHT22;708;51.442;7.016;2022-09-13T14:43:40;29.40;97.80
1429;DHT22;708;51.442;7.016;2022-09-13T14:46:09;29.30;98.40
1429;DHT22;708;51.442;7.016;2022-09-13T14:48:39;29.20;99.30
1429;DHT22;708;51.442;7.016;2022-09-13T14:51:14;29.10;99.90
1429;DHT22;708;51.442;7.016;2022-09-13T14:53:46;29.00;99.20
1429;DHT22;708;51.442;7.016;2022-09-13T14:56:15;29.00;98.60
1429;DHT22;708;51.442;7.016;2022-09-13T14:58:45;28.90;98.30
1429;DHT22;708;51.442;7.016;2022-09-13T15:01:14;28.80;99.00
1429;DHT22;708;51.442;7.016;2022-09-13T15:03:42;28.70;99.90
1429;DHT22;708;51.442;7.016;2022-09-13T15:08:59;28.30;99.90
1429;DHT22;708;51.442;7.016;2022-09-13T15:11:30;28.20;99.90
1429;DHT22;708;51.442;7.016;2022-09-13T15:14:22;28.10;99.90
1429;DHT22;708;51.442;7.016;2022-09-13T15:17:16;28.00;99.90
1429;DHT22;708;51.442;7.016;2022-09-13T15:20:02;28.10;99.90
1429;DHT22;708;51.442;7.016;2022-09-13T15:22:31;28.00;99.90
1429;DHT22;708;51.442;7.016;2022-09-13T15:25:01;27.90;99.90
1429;DHT22;708;51.442;7.016;2022-09-13T15:27:30;27.80;99.90
1429;DHT22;708;51.442;7.016;2022-09-13T15:30:01;27.70;99.90
1429;DHT22;708;51.442;7.016;2022-09-13T15:32:31;27.60;99.90
1429;DHT22;708;51.442;7.016;2022-09-13T15:35:17;27.50;99.90
1429;DHT22;708;51.442;7.016;2022-09-13T15:38:27;27.20;99.90
1429;DHT22;708;51.442;7.016;2022-09-13T15:41:20;27.00;99.90
1429;DHT22;708;51.442;7.016;2022-09-13T15:43:49;26.90;99.90
1429;DHT22;708;51.442;7.016;2022-09-13T15:46:17;26.70;99.90
1429;DHT22;708;51.442;7.016;2022-09-13T15:48:51;26.70;99.90
1429;DHT22;708;51.442;7.016;2022-09-13T15:51:21;26.60;99.90
1429;DHT22;708;51.442;7.016;2022-09-13T15:53:52;26.70;99.90
1429;DHT22;708;51.442;7.016;2022-09-13T15:56:31;26.70;99.90
1429;DHT22;708;51.442;7.016;2022-09-13T15:59:00;26.70;99.90
1429;DHT22;708;51.442;7.016;2022-09-13T16:01:27;26.80;99.90
1429;DHT22;708;51.442;7.016;2022-09-13T16:03:53;26.70;99.90
1429;DHT22;708;51.442;7.016;2022-09-13T16:06:20;26.60;99.90
1429;DHT22;708;51.442;7.016;2022-09-13T16:08:47;26.60;99.90
1429;DHT22;708;51.442;7.016;2022-09-13T16:11:14;26.50;99.90
1429;DHT22;708;51.442;7.016;2022-09-13T16:13:42;26.50;99.90
1429;DHT22;708;51.442;7.016;2022-09-13T16:16:11;26.50;99.90
1429;DHT22;708;51.442;7.016;2022-09-13T16:18:41;26.50;99.90
1429;DHT22;708;51.442;7.016;2022-09-13T16:21:08;26.50;99.90
1429;DHT22;708;51.442;7.016;2022-09-13T16:23:35;26.40;99.90
1429;DHT22;708;51.442;7.016;2022-09-13T16:26:03;26.40;99.90
1429;DHT22;708;51.442;7.016;2022-09-13T16:28:30;26.30;99.90
1429;DHT22;708;51.442;7.016;2022-09-13T16:30:58;26.20;99.90
1429;DHT22;708;51.442;7.016;2022-09-13T16:33:25;26.20;99.90
1429;DHT22;708;51.442;7.016;2022-09-13T16:35:52;26.10;99.90
1429;DHT22;708;51.442;7.016;2022-09-13T16:38:19;26.10;99.90
1429;DHT22;708;51.442;7.016;2022-09-13T16:40:46;26.00;99.90
1429;DHT22;708;51.442;7.016;2022-09-13T16:43:13;25.90;99.90
1429;DHT22;708;51.442;7.016;2022-09-13T16:45:40;25.90;99.90
1429;DHT22;708;51.442;7.016;2022-09-13T16:48:11;25.90;99.90
1429;DHT22;708;51.442;7.016;2022-09-13T16:50:39;25.80;99.90
1429;DHT22;708;51.442;7.016;2022-09-13T16:53:06;25.80;99.90
1429;DHT22;708;51.442;7.016;2022-09-13T16:55:34;25.60;99.90
1429;DHT22;708;51.442;7.016;2022-09-13T16:58:01;25.60;99.90
1429;DHT22;708;51.442;7.016;2022-09-13T17:00:39;25.50;99.90
1429;DHT22;708;51.442;7.016;2022-09-13T17:03:11;25.40;99.90
1429;DHT22;708;51.442;7.016;2022-09-13T17:05:38;25.40;99.90
1429;DHT22;708;51.442;7.016;2022-09-13T17:08:05;25.40;99.90
1429;DHT22;708;51.442;7.016;2022-09-13T17:10:32;25.30;99.90
1429;DHT22;708;51.442;7.016;2022-09-13T17:12:59;25.30;99.90